Time;durP1;ratioP1;P1;durP2;ratioP2;P2;SDS_P1;SDS_P2;PMS_P1;PMS_P2;Temp;Humidity;BMP_temperature;BMP_pressure;BME280_temperature;BME280_humidity;BME280_pressure;Samples;Min_cycle;Max_cycle;Signal;HPM_P1;HPM_P2
2023/05/27 00:00:09;;;;;;;2.23;1.53;;;11.10;78.40;11.00;101751.00;;;;4987721;27;107662;-70
2023/05/27 00:02:35;;;;;;;3.80;2.10;;;11.10;79.40;11.00;101762.00;;;;5009423;27;88052;-70
2023/05/27 00:05:01;;;;;;;2.77;1.63;;;11.10;80.00;10.90;101748.00;;;;5006821;27;116679;-70
2023/05/27 00:07:28;;;;;;;1.93;1.53;;;11.00;80.70;10.90;101766.00;;;;5005931;27;89986;-70
2023/05/27 00:09:54;;;;;;;2.23;1.93;;;11.00;81.20;10.80;101766.00;;;;5006700;27;88722;-70
2023/05/27 00:12:20;;;;;;;1.20;1.00;;;10.90;82.10;10.80;101764.00;;;;5008121;27;89044;-70
2023/05/27 00:14:46;;;;;;;1.87;1.73;;;10.90;82.90;10.70;101760.00;;;;5006159;27;108315;-69
2023/05/27 00:17:13;;;;;;;2.80;1.33;;;10.80;83.60;10.70;101757.00;;;;5008337;27;87788;-70
2023/05/27 00:19:39;;;;;;;4.10;1.60;;;10.80;84.20;10.60;101754.00;;;;4989858;27;87771;-69
2023/05/27 00:22:06;;;;;;;4.43;2.37;;;10.70;84.90;10.60;101759.00;;;;5008334;27;97731;-70
2023/05/27 00:24:35;;;;;;;8.43;2.10;;;10.70;85.80;10.50;101752.00;;;;5005644;27;88910;-69
2023/05/27 00:27:02;;;;;;;2.13;1.93;;;10.60;86.50;10.50;101759.00;;;;5007690;27;89597;-70
2023/05/27 00:29:28;;;;;;;2.33;1.67;;;10.60;87.20;10.40;101744.00;;;;5008984;27;87988;-70
2023/05/27 00:31:53;;;;;;;7.47;2.37;;;10.50;87.70;10.30;101750.00;;;;5007321;27;94225;-70
2023/05/27 00:34:19;;;;;;;2.73;1.47;;;10.40;88.50;10.20;101747.00;;;;5003439;27;111683;-70
2023/05/27 00:36:45;;;;;;;4.00;1.90;;;10.30;89.20;10.10;101753.00;;;;5006854;27;116519;-69
2023/05/27 00:39:21;;;;;;;2.83;2.50;;;10.20;90.10;9.90;101750.00;;;;5004742;27;111563;-69
2023/05/27 00:41:50;;;;;;;4.40;2.77;;;10.10;90.20;9.90;101743.00;;;;5008127;27;88621;-70
2023/05/27 00:44:16;;;;;;;2.53;1.77;;;10.00;90.50;9.80;101743.00;;;;5007884;27;88974;-69
2023/05/27 00:46:46;;;;;;;2.23;1.80;;;9.90;90.90;9.70;101739.00;;;;5007216;27;111071;-70
2023/05/27 00:49:12;;;;;;;3.43;2.30;;;9.90;91.30;9.70;101742.00;;;;5006096;27;102234;-70
2023/05/27 00:51:38;;;;;;;6.00;1.63;;;9.80;91.80;9.60;101744.00;;;;5007805;27;87908;-70
2023/05/27 00:54:07;;;;;;;4.40;2.43;;;9.70;92.50;9.50;101752.00;;;;5004481;27;117680;-70
2023/05/27 00:56:33;;;;;;;6.13;3.10;;;9.60;92.50;9.50;101747.00;;;;4989938;27;88313;-70
2023/05/27 00:59:00;;;;;;;3.20;1.83;;;9.60;93.00;9.40;101745.00;;;;5005661;27;110298;-70
2023/05/27 01:01:25;;;;;;;7.77;1.90;;;9.50;93.30;9.30;101741.00;;;;4990060;27;107977;-70
2023/05/27 01:03:52;;;;;;;2.90;1.90;;;9.50;93.90;9.30;101743.00;;;;5004850;27;118842;-70
2023/05/27 01:06:59;;;;;;;2.43;1.70;;;9.40;94.30;9.10;101741.00;;;;5004589;27;87848;-70
2023/05/27 01:10:04;;;;;;;4.83;1.73;;;9.40;94.70;9.10;101742.00;;;;4991375;27;87984;-70
2023/05/27 01:12:53;;;;;;;7.13;2.13;;;9.20;95.10;9.00;101743.00;;;;5007101;27;87946;-70
2023/05/27 01:15:19;;;;;;;3.60;1.33;;;9.20;95.40;9.00;101743.00;;;;4989019;27;89162;-70
2023/05/27 01:17:47;;;;;;;3.73;1.83;;;9.20;95.70;8.90;101740.00;;;;5004888;27;117488;-70
2023/05/27 01:20:14;;;;;;;3.27;1.77;;;9.10;96.00;8.90;101741.00;;;;5007465;27;87843;-69
2023/05/27 01:22:43;;;;;;;4.00;2.47;;;9.00;96.50;8.80;101741.00;;;;5007931;27;99118;-69
2023/05/27 01:25:09;;;;;;;3.70;1.50;;;9.00;96.40;8.80;101741.00;;;;4989295;27;119070;-70
2023/05/27 01:27:35;;;;;;;3.53;2.17;;;8.90;96.60;8.70;101747.00;;;;5004492;27;88937;-69
2023/05/27 01:30:03;;;;;;;3.57;2.03;;;8.90;97.00;8.60;101750.00;;;;5005303;27;101493;-69
2023/05/27 01:32:40;;;;;;;10.33;2.50;;;8.80;97.40;8.50;101738.00;;;;5005807;27;99666;-70
2023/05/27 01:35:28;;;;;;;2.10;1.97;;;8.70;98.00;8.40;101738.00;;;;4990795;27;87987;-70
2023/05/27 01:37:56;;;;;;;4.23;2.20;;;8.60;98.40;8.30;101745.00;;;;4990226;27;88857;-69
2023/05/27 01:40:22;;;;;;;9.13;3.07;;;8.50;99.00;8.20;101733.00;;;;5005012;27;100393;-69
2023/05/27 01:42:49;;;;;;;3.03;2.43;;;8.30;99.10;8.10;101728.00;;;;5003155;27;108277;-69
2023/05/27 01:45:14;;;;;;;3.93;2.07;;;8.30;99.40;8.10;101736.00;;;;4985344;27;88812;-69
2023/05/27 01:47:44;;;;;;;4.97;3.00;;;8.60;99.90;8.00;101745.00;;;;5007213;27;92460;-69
2023/05/27 01:50:10;;;;;;;2.40;2.17;;;8.30;99.90;7.90;101729.00;;;;4987415;27;90175;-70
2023/05/27 01:52:36;;;;;;;4.90;2.00;;;8.10;99.90;7.90;101727.00;;;;5005737;27;108767;-69
2023/05/27 01:55:04;;;;;;;7.67;2.30;;;8.00;99.90;7.80;101732.00;;;;5005805;27;117013;-69
2023/05/27 01:57:30;;;;;;;4.20;1.97;;;8.00;99.90;7.70;101730.00;;;;5004882;27;88783;-69
2023/05/27 01:59:55;;;;;;;6.23;2.10;;;7.90;99.90;7.70;101731.00;;;;5006270;27;110539;-69
2023/05/27 02:02:21;;;;;;;2.30;1.87;;;7.80;99.90;7.60;101716.00;;;;5006868;27;98094;-69
2023/05/27 02:04:47;;;;;;;1.77;1.47;;;7.70;99.90;7.50;101716.00;;;;5003975;27;118288;-69
2023/05/27 02:07:12;;;;;;;4.47;2.87;;;7.70;99.90;7.50;101720.00;;;;5002103;27;117987;-69
2023/05/27 02:09:38;;;;;;;5.80;2.00;;;7.60;99.90;7.50;101706.00;;;;5005301;27;109598;-69
2023/05/27 02:12:05;;;;;;;5.40;2.17;;;7.60;99.90;7.40;101715.00;;;;5005274;27;88083;-69
2023/05/27 02:14:31;;;;;;;7.33;3.03;;;7.60;99.90;7.30;101710.00;;;;5006902;27;88182;-70
2023/05/27 02:16:57;;;;;;;3.10;1.90;;;7.50;99.90;7.30;101717.00;;;;5006861;27;88676;-70
2023/05/27 02:19:24;;;;;;;2.30;2.10;;;7.50;99.90;7.30;101717.00;;;;5005416;27;88132;-70
2023/05/27 02:21:50;;;;;;;2.87;1.37;;;7.40;99.90;7.30;101708.00;;;;5006174;27;87158;-70
2023/05/27 02:24:22;;;;;;;2.40;2.00;;;7.50;99.90;7.30;101710.00;;;;5005065;27;119992;-70
2023/05/27 02:26:47;;;;;;;3.47;2.60;;;7.40;99.90;7.30;101710.00;;;;4984615;27;118185;-69
2023/05/27 02:29:13;;;;;;;2.43;1.67;;;7.40;99.90;7.30;101709.00;;;;5002982;27;110603;-69
2023/05/27 02:31:39;;;;;;;2.83;1.40;;;7.60;99.90;7.30;101718.00;;;;5005884;27;108810;-70
2023/05/27 02:34:04;;;;;;;4.60;1.80;;;7.50;99.90;7.30;101721.00;;;;5005851;27;117703;-69
2023/05/27 02:36:30;;;;;;;2.03;1.60;;;7.80;99.90;7.20;101718.00;;;;5004109;27;117135;-69
2023/05/27 02:38:55;;;;;;;4.47;2.57;;;7.70;99.90;7.10;101711.00;;;;5004788;27;107499;-69
2023/05/27 02:41:21;;;;;;;2.23;2.00;;;7.30;99.90;7.10;101715.00;;;;5003400;27;108082;-69
2023/05/27 02:43:47;;;;;;;4.77;1.90;;;7.20;99.90;7.00;101712.00;;;;5004884;27;117919;-70
2023/05/27 02:46:12;;;;;;;4.67;2.77;;;7.40;99.90;7.00;101708.00;;;;5006930;27;116700;-70
2023/05/27 02:48:38;;;;;;;3.77;2.30;;;7.20;99.90;7.00;101715.00;;;;5004829;27;109978;-70
2023/05/27 02:51:04;;;;;;;3.97;2.37;;;7.10;99.90;6.90;101708.00;;;;5002521;27;110243;-70
2023/05/27 02:53:29;;;;;;;2.67;1.63;;;7.10;99.90;6.80;101717.00;;;;5002763;27;95856;-70
2023/05/27 02:55:55;;;;;;;4.40;2.23;;;7.30;99.90;6.70;101711.00;;;;5004110;27;117302;-70
2023/05/27 02:58:21;;;;;;;3.67;2.17;;;7.00;99.90;6.70;101696.00;;;;5001720;27;110580;-69
2023/05/27 03:00:46;;;;;;;11.43;1.90;;;6.80;99.90;6.70;101703.00;;;;5005013;27;109133;-69
2023/05/27 03:03:12;;;;;;;7.37;2.43;;;7.00;99.90;6.70;101710.00;;;;5007552;27;88290;-69
2023/05/27 03:05:38;;;;;;;6.47;2.10;;;6.80;99.90;6.60;101712.00;;;;5002939;27;116978;-70
2023/05/27 03:08:05;;;;;;;4.80;2.20;;;6.80;99.90;6.70;101714.00;;;;5005415;27;88055;-69
2023/05/27 03:10:32;;;;;;;4.17;2.43;;;6.80;99.90;6.70;101705.00;;;;5008645;27;87022;-69
2023/05/27 03:12:58;;;;;;;2.43;1.97;;;6.80;99.90;6.70;101711.00;;;;5008421;27;88397;-69
2023/05/27 03:15:23;;;;;;;2.80;2.20;;;7.00;99.90;6.60;101716.00;;;;5004612;27;117636;-69
2023/05/27 03:17:49;;;;;;;4.00;2.50;;;6.80;99.90;6.70;101718.00;;;;5002429;27;110596;-69
2023/05/27 03:20:16;;;;;;;3.73;1.80;;;6.80;99.90;6.60;101718.00;;;;5003899;27;88847;-69
2023/05/27 03:22:42;;;;;;;4.73;2.40;;;6.80;99.90;6.60;101711.00;;;;5007447;27;89404;-70
2023/05/27 03:25:08;;;;;;;4.07;2.77;;;6.80;99.90;6.60;101723.00;;;;5003937;27;117111;-69
2023/05/27 03:27:34;;;;;;;4.53;2.13;;;6.80;99.90;6.60;101715.00;;;;5004249;27;87845;-70
2023/05/27 03:30:00;;;;;;;4.20;2.50;;;7.00;99.90;6.60;101712.00;;;;5005606;27;89366;-69
2023/05/27 03:32:26;;;;;;;3.37;2.10;;;6.80;99.90;6.60;101716.00;;;;5005595;27;109310;-69
2023/05/27 03:34:51;;;;;;;3.30;2.27;;;6.80;99.90;6.60;101718.00;;;;5007539;27;87442;-69
2023/05/27 03:37:17;;;;;;;1.63;1.53;;;6.80;99.90;6.60;101718.00;;;;5004236;27;111821;-69
2023/05/27 03:39:43;;;;;;;14.60;2.43;;;7.10;99.90;6.60;101716.00;;;;5005979;27;107750;-70
2023/05/27 03:42:09;;;;;;;3.00;1.97;;;6.80;99.90;6.60;101713.00;;;;5002956;27;117653;-71
2023/05/27 03:44:35;;;;;;;2.70;2.00;;;7.30;99.90;6.60;101721.00;;;;4985367;27;117348;-69
2023/05/27 03:47:05;;;;;;;3.50;1.73;;;7.10;99.90;6.70;101721.00;;;;5004236;27;88117;-70
2023/05/27 03:49:30;;;;;;;5.07;2.27;;;6.80;99.90;6.70;101723.00;;;;5004642;27;100556;-70
2023/05/27 03:51:56;;;;;;;2.97;1.80;;;6.80;99.90;6.70;101734.00;;;;4994433;27;118956;-70
2023/05/27 03:54:22;;;;;;;2.40;2.03;;;6.80;99.90;6.80;101731.00;;;;4983443;28;117877;-70
2023/05/27 03:56:47;;;;;;;2.77;2.03;;;7.40;99.90;6.80;101730.00;;;;4986933;27;110621;-70
2023/05/27 03:59:14;;;;;;;3.57;2.33;;;6.90;99.90;6.90;101739.00;;;;4986189;27;108799;-70
2023/05/27 04:01:40;;;;;;;2.07;1.63;;;7.00;99.90;6.90;101731.00;;;;4989572;27;89433;-70
2023/05/27 04:04:06;;;;;;;2.80;1.93;;;7.00;99.90;7.00;101737.00;;;;4989737;27;89755;-70
2023/05/27 04:06:33;;;;;;;5.30;2.87;;;7.10;99.90;7.00;101737.00;;;;4973976;28;108376;-70
2023/05/27 04:08:58;;;;;;;5.10;2.30;;;7.40;99.90;7.10;101743.00;;;;4989835;28;87985;-70
2023/05/27 04:11:27;;;;;;;2.00;1.87;;;7.20;99.90;7.10;101734.00;;;;4988531;27;117219;-70
2023/05/27 04:13:52;;;;;;;2.73;2.00;;;7.20;99.90;7.20;101737.00;;;;4976260;28;89919;-70
2023/05/27 04:16:18;;;;;;;5.10;2.13;;;7.50;99.90;7.30;101735.00;;;;4989824;27;88637;-70
2023/05/27 04:18:48;;;;;;;2.20;1.80;;;7.40;99.90;7.40;101732.00;;;;4991639;27;88840;-71
2023/05/27 04:21:15;;;;;;;2.83;1.73;;;7.90;99.90;7.50;101725.00;;;;4988977;27;88068;-70
2023/05/27 04:23:41;;;;;;;3.57;2.57;;;7.60;99.90;7.70;101742.00;;;;4989749;27;87979;-70
2023/05/27 04:26:07;;;;;;;3.87;2.70;;;7.80;99.90;7.80;101720.00;;;;4989616;27;89163;-70
2023/05/27 04:28:34;;;;;;;2.60;1.70;;;7.90;99.90;7.90;101728.00;;;;4991105;27;87749;-70
2023/05/27 04:30:59;;;;;;;6.33;2.63;;;8.30;99.90;8.00;101734.00;;;;4988563;27;90056;-70
2023/05/27 04:33:26;;;;;;;4.60;2.20;;;8.00;99.90;8.10;101732.00;;;;4988246;28;112598;-70
2023/05/27 04:35:53;;;;;;;3.33;2.00;;;8.20;99.90;8.30;101739.00;;;;4988438;28;90250;-69
2023/05/27 04:38:20;;;;;;;4.80;2.27;;;8.30;99.90;8.40;101734.00;;;;4988233;28;87910;-70
2023/05/27 04:40:52;;;;;;;2.80;2.17;;;8.40;99.90;8.50;101736.00;;;;4989448;27;88105;-71
2023/05/27 04:43:22;;;;;;;4.00;1.63;;;8.60;99.90;8.70;101737.00;;;;4988914;27;87828;-71
2023/05/27 04:45:48;;;;;;;7.57;2.33;;;8.70;99.90;8.80;101745.00;;;;4988295;27;87987;-71
2023/05/27 04:48:15;;;;;;;3.57;1.80;;;8.90;99.90;9.00;101744.00;;;;4989451;27;88779;-71
2023/05/27 04:50:42;;;;;;;3.93;2.10;;;9.00;99.90;9.10;101751.00;;;;4986100;28;88989;-71
2023/05/27 04:53:08;;;;;;;1.87;1.57;;;9.20;99.90;9.30;101745.00;;;;5003745;27;88055;-70
2023/05/27 04:55:35;;;;;;;1.80;1.40;;;9.30;99.90;9.40;101758.00;;;;5006212;27;89717;-71
2023/05/27 04:58:03;;;;;;;4.07;2.00;;;9.50;99.90;9.60;101757.00;;;;5002211;27;88051;-72
2023/05/27 05:00:38;;;;;;;2.70;1.73;;;9.60;99.90;9.80;101752.00;;;;5003323;27;88988;-71
2023/05/27 05:03:06;;;;;;;2.87;1.90;;;9.80;99.90;10.00;101749.00;;;;5005150;27;88201;-71
2023/05/27 05:05:32;;;;;;;1.97;1.77;;;9.90;99.90;10.10;101756.00;;;;5005140;27;88402;-71
2023/05/27 05:07:58;;;;;;;1.80;1.53;;;10.10;99.90;10.30;101754.00;;;;5004078;27;88673;-71
2023/05/27 05:10:24;;;;;;;3.97;2.13;;;10.30;99.90;10.50;101753.00;;;;5004114;27;88197;-72
2023/05/27 05:12:50;;;;;;;6.47;2.20;;;10.50;99.90;10.70;101752.00;;;;4988186;27;91499;-72
2023/05/27 05:15:16;;;;;;;2.07;1.87;;;10.70;99.90;10.90;101761.00;;;;4985543;27;88077;-71
2023/05/27 05:17:41;;;;;;;2.77;1.70;;;10.90;99.90;11.10;101756.00;;;;5004197;27;88654;-72
2023/05/27 05:20:08;;;;;;;4.23;2.43;;;11.10;99.90;11.40;101757.00;;;;5003574;27;116130;-71
2023/05/27 05:22:34;;;;;;;2.93;1.97;;;11.30;99.90;11.60;101756.00;;;;5002456;27;89348;-71
2023/05/27 05:25:00;;;;;;;2.90;2.13;;;11.50;99.90;11.80;101760.00;;;;4999872;27;97871;-71
2023/05/27 05:27:27;;;;;;;2.73;2.17;;;11.70;99.90;12.00;101761.00;;;;5005000;27;88142;-71
2023/05/27 05:29:54;;;;;;;2.27;1.97;;;11.90;99.90;12.20;101768.00;;;;4984082;27;88202;-71
2023/05/27 05:32:20;;;;;;;4.47;2.07;;;12.10;99.90;12.40;101769.00;;;;5004280;27;88200;-71
2023/05/27 05:34:46;;;;;;;6.70;2.03;;;12.30;99.90;12.60;101770.00;;;;5002828;27;88805;-71
2023/05/27 05:37:11;;;;;;;3.77;1.70;;;12.50;99.90;12.80;101767.00;;;;5002411;27;104007;-70
2023/05/27 05:39:37;;;;;;;4.33;2.07;;;12.70;99.90;13.00;101765.00;;;;5003307;27;89358;-70
2023/05/27 05:42:04;;;;;;;4.40;1.90;;;12.90;99.90;13.20;101771.00;;;;5000421;27;117423;-70
2023/05/27 05:44:30;;;;;;;3.43;2.03;;;13.10;99.90;13.40;101771.00;;;;5003011;27;91395;-71
2023/05/27 05:46:56;;;;;;;8.70;2.67;;;13.30;99.90;13.60;101761.00;;;;5002830;27;107950;-71
2023/05/27 05:49:22;;;;;;;7.47;1.87;;;13.50;99.90;13.80;101771.00;;;;5003107;27;87902;-71
2023/05/27 05:51:47;;;;;;;5.83;2.73;;;13.70;99.90;14.00;101767.00;;;;5001980;27;116299;-70
2023/05/27 05:54:13;;;;;;;2.35;1.83;;;13.90;99.90;14.20;101768.00;;;;5003735;27;89317;-70
2023/05/27 05:56:39;;;;;;;3.87;1.43;;;14.10;99.90;14.50;101770.00;;;;5000180;27;109372;-70
2023/05/27 05:59:05;;;;;;;2.58;2.03;;;14.40;99.90;14.70;101773.00;;;;5001634;27;89264;-70
2023/05/27 06:01:31;;;;;;;1.88;1.02;;;14.50;99.60;14.90;101777.00;;;;5001642;27;115683;-71
2023/05/27 06:03:57;;;;;;;3.27;1.80;;;14.80;99.10;15.10;101779.00;;;;5001031;27;89066;-69
2023/05/27 06:06:23;;;;;;;2.55;1.90;;;15.00;98.50;15.30;101776.00;;;;5000974;27;88187;-69
2023/05/27 06:08:49;;;;;;;1.17;1.08;;;15.20;97.90;15.50;101778.00;;;;5000540;27;119709;-69
2023/05/27 06:11:15;;;;;;;3.30;2.15;;;15.40;97.30;15.80;101783.00;;;;5002656;27;88666;-71
2023/05/27 06:13:41;;;;;;;3.45;1.63;;;15.60;95.90;15.90;101782.00;;;;5002446;27;89267;-69
2023/05/27 06:16:06;;;;;;;1.92;1.23;;;15.80;94.90;16.00;101791.00;;;;5002818;27;108506;-69
2023/05/27 06:18:32;;;;;;;3.90;1.70;;;15.90;94.20;16.10;101786.00;;;;5000415;27;117679;-71
2023/05/27 06:20:58;;;;;;;3.03;1.27;;;16.00;93.30;16.30;101792.00;;;;4999837;27;117037;-69
2023/05/27 06:23:23;;;;;;;2.95;1.30;;;16.20;92.50;16.40;101790.00;;;;5001650;27;87658;-69
2023/05/27 06:25:49;;;;;;;2.97;1.38;;;16.30;91.90;16.50;101797.00;;;;5003769;27;108639;-69
2023/05/27 06:28:15;;;;;;;7.05;1.45;;;16.40;90.90;16.50;101790.00;;;;5000375;27;118658;-69
2023/05/27 06:30:42;;;;;;;1.58;1.27;;;16.40;90.10;16.60;101791.00;;;;5001079;27;118370;-69
2023/05/27 06:33:08;;;;;;;1.33;1.00;;;16.50;89.50;16.70;101789.00;;;;5001377;27;90147;-71
2023/05/27 06:35:34;;;;;;;1.55;0.98;;;16.60;89.50;16.90;101800.00;;;;5000970;27;87929;-70
2023/05/27 06:38:00;;;;;;;2.13;1.13;;;16.70;85.10;16.90;101801.00;;;;4986996;27;89733;-68
2023/05/27 06:40:26;;;;;;;2.47;0.85;;;16.80;82.20;16.90;101801.00;;;;5001510;27;88506;-68
2023/05/27 06:42:51;;;;;;;2.92;1.05;;;16.80;81.50;16.90;101796.00;;;;5001321;27;111701;-68
2023/05/27 06:45:17;;;;;;;2.33;1.25;;;16.80;81.50;17.00;101796.00;;;;4999815;27;108550;-69
2023/05/27 06:47:42;;;;;;;3.28;1.80;;;16.90;82.00;17.20;101801.00;;;;5000412;27;118766;-69
2023/05/27 06:50:09;;;;;;;2.22;1.00;;;17.10;80.50;17.30;101793.00;;;;5000735;27;118312;-69
2023/05/27 06:52:34;;;;;;;1.45;1.00;;;17.20;78.00;17.40;101789.00;;;;5002107;27;89051;-69
2023/05/27 06:55:00;;;;;;;1.02;0.63;;;17.30;78.40;17.60;101796.00;;;;5002890;27;89372;-71
2023/05/27 06:57:26;;;;;;;4.22;1.17;;;17.40;78.40;17.80;101795.00;;;;4998579;27;117675;-70
2023/05/27 06:59:52;;;;;;;4.80;1.60;;;17.60;77.70;18.00;101788.00;;;;5001627;27;91828;-70
2023/05/27 07:02:18;;;;;;;2.15;1.00;;;17.80;75.90;18.10;101785.00;;;;4983697;27;108284;-70
2023/05/27 07:04:43;;;;;;;4.00;1.73;;;17.90;73.00;18.10;101784.00;;;;5000545;27;97953;-71
2023/05/27 07:07:09;;;;;;;1.60;0.90;;;18.30;71.00;18.10;101785.00;;;;5000234;27;118144;-69
2023/05/27 07:09:35;;;;;;;0.68;0.68;;;17.90;70.20;18.10;101796.00;;;;5001955;27;89013;-69
2023/05/27 07:12:02;;;;;;;2.85;1.25;;;18.00;69.70;18.20;101783.00;;;;4979516;27;110517;-69
2023/05/27 07:14:28;;;;;;;5.05;1.75;;;18.00;69.70;18.20;101789.00;;;;4999466;27;99263;-69
2023/05/27 07:16:53;;;;;;;2.47;0.90;;;18.10;69.50;18.50;101787.00;;;;5000733;27;117426;-69
2023/05/27 07:19:19;;;;;;;0.55;0.40;;;18.20;69.00;18.60;101776.00;;;;5000268;27;117230;-69
2023/05/27 07:21:45;;;;;;;2.17;1.17;;;18.40;68.50;18.80;101775.00;;;;4993868;27;88658;-70
2023/05/27 07:24:11;;;;;;;3.70;1.25;;;18.60;67.70;18.90;101788.00;;;;5000006;27;95318;-70
2023/05/27 07:26:36;;;;;;;2.47;0.82;;;18.70;66.10;19.00;101783.00;;;;5001234;27;89127;-69
2023/05/27 07:29:02;;;;;;;0.63;0.45;;;18.80;63.40;18.90;101783.00;;;;4984744;27;117271;-69
2023/05/27 07:31:29;;;;;;;2.10;0.65;;;18.70;63.50;18.90;101776.00;;;;5000778;27;102012;-70
2023/05/27 07:33:55;;;;;;;1.40;1.30;;;18.80;64.70;19.20;101776.00;;;;5002592;27;88963;-70
2023/05/27 07:36:21;;;;;;;2.28;0.30;;;18.90;64.40;19.40;101784.00;;;;5003862;27;89302;-68
2023/05/27 07:38:49;;;;;;;7.00;1.25;;;19.10;63.30;19.50;101776.00;;;;5004233;27;107768;-69
2023/05/27 07:41:15;;;;;;;1.45;1.00;;;19.30;60.60;19.40;101782.00;;;;5005123;27;88059;-70
2023/05/27 07:43:41;;;;;;;2.80;0.93;;;19.30;61.00;19.40;101782.00;;;;5004033;27;108348;-69
2023/05/27 07:46:06;;;;;;;2.60;0.90;;;19.30;60.10;19.50;101771.00;;;;5003078;27;118028;-69
2023/05/27 07:48:32;;;;;;;2.80;1.48;;;19.40;60.20;19.70;101769.00;;;;5005043;27;103351;-70
2023/05/27 07:50:58;;;;;;;1.20;1.00;;;19.50;59.10;19.70;101769.00;;;;5001801;27;111160;-69
2023/05/27 07:53:23;;;;;;;3.70;1.48;;;19.50;59.10;19.80;101764.00;;;;5004114;27;110055;-70
2023/05/27 07:55:49;;;;;;;1.45;0.90;;;19.60;59.20;19.90;101762.00;;;;5002136;27;117929;-71
2023/05/27 07:58:15;;;;;;;1.23;0.47;;;19.70;58.90;20.00;101769.00;;;;5004609;27;87886;-71
2023/05/27 08:00:41;;;;;;;2.08;0.85;;;19.80;58.20;20.20;101771.00;;;;5003811;27;110615;-70
2023/05/27 08:03:06;;;;;;;2.30;0.88;;;20.00;55.80;20.20;101761.00;;;;5003422;27;108918;-70
2023/05/27 08:05:32;;;;;;;2.28;0.77;;;20.00;55.70;20.20;101761.00;;;;5004350;27;117926;-70
2023/05/27 08:07:59;;;;;;;1.50;0.90;;;20.00;55.70;20.20;101764.00;;;;5003961;27;118829;-69
2023/05/27 08:10:28;;;;;;;1.30;0.70;;;20.00;55.40;20.20;101761.00;;;;5004348;27;89184;-69
2023/05/27 08:12:54;;;;;;;2.28;0.80;;;20.10;55.50;20.30;101758.00;;;;5004589;27;98573;-69
2023/05/27 08:15:20;;;;;;;4.55;0.82;;;20.10;55.60;20.50;101758.00;;;;4988291;27;90966;-69
2023/05/27 08:17:45;;;;;;;1.05;0.95;;;20.20;54.60;20.30;101749.00;;;;5003024;27;117987;-70
2023/05/27 08:20:12;;;;;;;1.30;0.82;;;20.20;53.60;20.10;101750.00;;;;5004005;27;109672;-69
2023/05/27 08:22:37;;;;;;;1.45;1.00;;;20.00;54.30;20.00;101741.00;;;;5004149;27;89402;-70
2023/05/27 08:25:04;;;;;;;1.52;0.75;;;19.90;54.90;20.10;101749.00;;;;5002856;27;87876;-71
2023/05/27 08:27:49;;;;;;;0.65;0.65;;;20.00;55.40;20.50;101750.00;;;;5005443;27;89536;-70
2023/05/27 08:30:14;;;;;;;3.78;0.77;;;20.20;55.80;20.80;101750.00;;;;5003581;27;88026;-71
2023/05/27 08:32:41;;;;;;;0.93;0.30;;;20.50;55.60;21.20;101741.00;;;;5005223;27;93732;-69
2023/05/27 08:35:08;;;;;;;2.05;1.20;;;20.80;55.00;21.50;101743.00;;;;5002478;27;88957;-70
2023/05/27 08:37:33;;;;;;;2.63;1.00;;;21.10;54.60;21.80;101735.00;;;;5004620;27;102119;-69
2023/05/27 08:39:59;;;;;;;0.63;0.60;;;21.40;53.50;21.90;101735.00;;;;5004874;27;104791;-70
2023/05/27 08:42:25;;;;;;;0.70;0.70;;;21.60;53.30;22.10;101737.00;;;;5005400;27;88145;-71
2023/05/27 08:44:51;;;;;;;1.48;1.23;;;21.80;53.10;22.40;101733.00;;;;5005149;27;89158;-70
2023/05/27 08:47:17;;;;;;;5.10;0.93;;;22.10;52.80;22.60;101734.00;;;;5003012;27;118209;-70
2023/05/27 08:49:43;;;;;;;2.42;0.95;;;22.30;51.50;22.70;101725.00;;;;5003986;27;110546;-70
2023/05/27 08:52:18;;;;;;;1.35;0.90;;;22.50;50.70;22.80;101733.00;;;;5005339;27;87283;-71
2023/05/27 08:54:46;;;;;;;1.05;0.65;;;22.60;50.30;22.80;101731.00;;;;5005002;27;89024;-69
2023/05/27 08:57:15;;;;;;;0.77;0.73;;;22.60;49.10;22.70;101728.00;;;;5002891;27;109021;-70
2023/05/27 08:59:42;;;;;;;4.18;1.27;;;22.50;49.70;22.90;101726.00;;;;5005003;27;98310;-70
2023/05/27 09:02:12;;;;;;;3.10;1.10;;;22.60;50.10;23.10;101722.00;;;;5001437;27;89387;-71
2023/05/27 09:04:40;;;;;;;1.63;0.90;;;22.80;48.90;23.10;101715.00;;;;4990769;27;89148;-71
2023/05/27 09:07:06;;;;;;;2.42;0.98;;;22.80;47.70;22.90;101709.00;;;;5003422;27;88417;-71
2023/05/27 09:09:32;;;;;;;3.72;1.40;;;22.70;47.30;22.90;101709.00;;;;5004687;27;97771;-72
2023/05/27 09:12:05;;;;;;;3.33;1.45;;;22.60;48.30;22.90;101710.00;;;;5000524;27;108817;-70
2023/05/27 09:14:32;;;;;;;2.70;1.45;;;22.60;47.70;22.70;101704.00;;;;4993977;27;89647;-71
2023/05/27 09:17:04;;;;;;;0.85;0.68;;;22.50;48.10;22.90;101695.00;;;;4975019;28;87361;-69
2023/05/27 09:19:30;;;;;;;1.73;1.08;;;22.60;47.90;22.80;101702.00;;;;5003068;27;101128;-71
2023/05/27 09:21:56;;;;;;;0.68;0.60;;;22.60;46.40;22.60;101691.00;;;;4987275;27;108426;-70
2023/05/27 09:24:25;;;;;;;4.28;1.55;;;22.40;46.70;22.70;101697.00;;;;5001340;27;118951;-71
2023/05/27 09:26:52;;;;;;;2.17;0.68;;;22.40;47.20;22.90;101704.00;;;;4990289;27;110077;-70
2023/05/27 09:29:19;;;;;;;1.65;1.17;;;22.50;47.20;23.20;101701.00;;;;5003230;27;89128;-69
2023/05/27 09:31:48;;;;;;;1.20;0.73;;;22.80;47.10;23.50;101695.00;;;;4996974;27;88770;-70
2023/05/27 09:34:17;;;;;;;0.88;0.75;;;23.00;46.60;23.70;101696.00;;;;4994040;27;117410;-72
2023/05/27 09:36:48;;;;;;;1.05;0.80;;;23.20;46.60;23.90;101691.00;;;;4991564;27;87849;-69
2023/05/27 09:39:15;;;;;;;4.97;0.80;;;23.50;45.30;23.90;101691.00;;;;5001250;27;87912;-69
2023/05/27 09:41:43;;;;;;;3.40;0.55;;;23.50;45.00;23.90;101686.00;;;;5003727;27;88584;-68
2023/05/27 09:44:15;;;;;;;0.93;0.68;;;23.60;44.70;23.90;101687.00;;;;4930546;27;117563;-68
2023/05/27 09:46:45;;;;;;;1.90;1.20;;;23.60;44.60;24.00;101683.00;;;;4975675;27;116389;-69
2023/05/27 09:49:14;;;;;;;1.17;0.95;;;23.60;44.90;24.20;101689.00;;;;4995893;27;89994;-73
2023/05/27 09:51:41;;;;;;;2.50;0.80;;;23.80;44.60;24.40;101687.00;;;;4966812;27;87838;-70
2023/05/27 09:54:09;;;;;;;4.50;1.05;;;24.00;44.00;24.60;101684.00;;;;4965695;27;89026;-71
2023/05/27 09:56:35;;;;;;;0.90;0.80;;;24.20;43.30;24.80;101688.00;;;;4981805;27;87965;-70
2023/05/27 09:59:01;;;;;;;2.83;0.80;;;24.40;42.00;25.00;101675.00;;;;4964770;27;107275;-74
2023/05/27 10:01:29;;;;;;;1.25;0.88;;;24.50;42.20;25.20;101683.00;;;;4983227;27;88100;-72
2023/05/27 10:03:58;;;;;;;3.50;1.30;;;24.80;41.40;25.30;101681.00;;;;4984080;27;89291;-76
2023/05/27 10:06:25;;;;;;;1.98;0.73;;;24.80;41.50;25.10;101673.00;;;;4983313;27;88086;-72
2023/05/27 10:08:58;;;;;;;3.15;0.70;;;24.80;40.90;24.90;101673.00;;;;4985380;27;88787;-72
2023/05/27 10:11:26;;;;;;;2.13;1.10;;;24.60;41.40;25.00;101675.00;;;;4963977;27;87963;-72
2023/05/27 10:13:52;;;;;;;1.92;0.75;;;24.50;41.50;25.20;101680.00;;;;4961147;27;90166;-74
2023/05/27 10:16:27;;;;;;;0.50;0.50;;;24.60;41.30;25.50;101661.00;;;;4968033;27;89771;-73
2023/05/27 10:18:55;;;;;;;0.93;0.70;;;24.90;41.10;25.80;101665.00;;;;4952105;27;107029;-75
2023/05/27 10:21:24;;;;;;;1.65;0.95;;;25.10;40.90;26.10;101666.00;;;;4983574;27;88067;-73
2023/05/27 10:24:00;;;;;;;0.68;0.60;;;25.40;40.40;26.40;101667.00;;;;4950555;27;88606;-73
2023/05/27 10:26:35;;;;;;;1.10;0.57;;;25.70;39.70;26.70;101659.00;;;;4944186;27;89714;-74
2023/05/27 10:29:13;;;;;;;0.60;0.50;;;26.00;39.30;26.90;101663.00;;;;4979721;27;89390;-77
2023/05/27 10:31:50;;;;;;;0.52;0.52;;;25.70;39.20;27.00;101660.00;;;;4978490;27;87051;-73
2023/05/27 10:34:17;;;;;;;2.72;0.98;;;26.40;36.60;26.70;101661.00;;;;4984055;27;104428;-75
2023/05/27 10:36:44;;;;;;;1.77;0.60;;;26.20;36.90;26.50;101656.00;;;;4985985;27;107328;-73
2023/05/27 10:39:18;;;;;;;2.25;0.90;;;26.00;37.20;26.10;101656.00;;;;4960621;27;89706;-74
2023/05/27 10:41:53;;;;;;;1.15;0.82;;;25.70;36.70;25.70;101663.00;;;;4946909;27;88101;-74
2023/05/27 10:44:32;;;;;;;1.65;0.70;;;25.40;37.20;25.40;101662.00;;;;4959039;27;87959;-72
2023/05/27 10:47:15;;;;;;;1.83;0.65;;;25.10;37.60;25.40;101651.00;;;;4956516;27;105089;-75
2023/05/27 10:49:46;;;;;;;0.40;0.40;;;24.90;39.10;25.40;101661.00;;;;4951621;28;89645;-73